Time;durP1;ratioP1;P1;durP2;ratioP2;P2;SDS_P1;SDS_P2;PMS_P1;PMS_P2;Temp;Humidity;BMP_temperature;BMP_pressure;BME280_temperature;BME280_humidity;BME280_pressure;Samples;Min_cycle;Max_cycle;Signal;HPM_P1;HPM_P2
2022/09/22 00:03:49;;;;;;;7.65;5.07;;;;;;;8.80;100.00;102528.06;10584408;28;20031;-68
2022/09/22 00:08:51;;;;;;;8.98;5.55;;;;;;;8.81;100.00;102510.88;10583120;28;20459;-68
2022/09/22 00:14:00;;;;;;;14.52;6.50;;;;;;;8.80;100.00;102504.59;10582798;28;20115;-68
2022/09/22 00:19:00;;;;;;;7.57;5.85;;;;;;;8.69;100.00;102504.78;10582519;28;20506;-68
2022/09/22 00:24:01;;;;;;;8.48;5.97;;;;;;;8.66;100.00;102498.84;10548620;28;20042;-69
2022/09/22 00:29:02;;;;;;;7.43;5.80;;;;;;;8.61;100.00;102501.94;10564903;28;20027;-69
2022/09/22 00:34:03;;;;;;;6.25;5.65;;;;;;;8.53;100.00;102502.69;10580418;28;20463;-68
2022/09/22 00:39:04;;;;;;;6.38;5.63;;;;;;;8.49;100.00;102497.75;10564185;28;20058;-69
2022/09/22 00:44:23;;;;;;;8.43;5.55;;;;;;;8.41;100.00;102495.75;10582381;28;20044;-68
2022/09/22 00:49:36;;;;;;;5.43;4.50;;;;;;;8.36;100.00;102498.00;10581434;28;20031;-69
2022/09/22 00:54:36;;;;;;;7.50;6.30;;;;;;;8.24;100.00;102482.97;10549214;28;20034;-68
2022/09/22 00:59:37;;;;;;;8.80;6.55;;;;;;;8.26;100.00;102481.78;10563914;28;20030;-67
2022/09/22 01:04:37;;;;;;;8.82;5.88;;;;;;;8.25;100.00;102477.41;10546915;28;20088;-68
2022/09/22 01:09:38;;;;;;;8.55;6.68;;;;;;;8.23;100.00;102476.72;10563595;28;20031;-68
2022/09/22 01:14:56;;;;;;;8.35;5.30;;;;;;;8.28;100.00;102463.63;10582121;28;20123;-67
2022/09/22 01:20:15;;;;;;;9.57;6.03;;;;;;;8.29;100.00;102467.16;10580882;28;20454;-68
2022/09/22 01:25:30;;;;;;;6.90;5.38;;;;;;;8.26;100.00;102465.59;10581235;28;20364;-68
2022/09/22 01:30:35;;;;;;;8.45;6.32;;;;;;;8.20;100.00;102449.13;10563924;28;20035;-68
2022/09/22 01:35:45;;;;;;;12.25;7.90;;;;;;;8.16;100.00;102451.28;10545866;28;20033;-68
2022/09/22 01:40:51;;;;;;;15.63;7.20;;;;;;;8.10;100.00;102450.03;10581988;28;20035;-68
2022/09/22 01:45:52;;;;;;;13.20;6.47;;;;;;;8.08;100.00;102434.97;10564304;28;20435;-67
2022/09/22 01:51:03;;;;;;;6.43;5.93;;;;;;;8.14;100.00;102450.59;10544928;28;20114;-67
2022/09/22 01:56:05;;;;;;;8.50;5.40;;;;;;;8.11;100.00;102431.97;10546105;28;20377;-68
2022/09/22 02:01:13;;;;;;;13.38;5.80;;;;;;;8.15;100.00;102431.53;10549399;28;20034;-67
2022/09/22 02:06:24;;;;;;;11.63;5.88;;;;;;;8.14;100.00;102421.75;10586832;28;20084;-68
2022/09/22 02:11:24;;;;;;;8.23;6.47;;;;;;;8.10;100.00;102422.16;10571024;28;20036;-68
2022/09/22 02:16:26;;;;;;;8.20;6.03;;;;;;;8.03;100.00;102423.75;10570317;28;20043;-68
2022/09/22 02:21:26;;;;;;;16.25;5.85;;;;;;;7.96;100.00;102411.81;10586562;28;20031;-68
2022/09/22 02:26:27;;;;;;;13.30;6.10;;;;;;;7.98;100.00;102421.50;10551299;28;20032;-68
2022/09/22 02:31:29;;;;;;;6.18;5.50;;;;;;;7.90;100.00;102411.41;10587596;28;20112;-68
2022/09/22 02:36:50;;;;;;;7.10;6.38;;;;;;;7.93;100.00;102415.66;10586298;28;20082;-68
2022/09/22 02:42:13;;;;;;;10.80;5.65;;;;;;;7.86;100.00;102409.97;10569778;28;20032;-67
2022/09/22 02:47:50;;;;;;;7.97;6.25;;;;;;;7.93;100.00;102399.47;10568049;28;20042;-68
2022/09/22 02:52:51;;;;;;;9.75;6.50;;;;;;;7.95;100.00;102408.28;10587617;28;20511;-66
2022/09/22 02:57:53;;;;;;;8.73;6.28;;;;;;;7.95;100.00;102392.09;10586163;28;20039;-67
2022/09/22 03:02:53;;;;;;;9.43;5.57;;;;;;;7.91;100.00;102396.94;10585474;28;20040;-67
2022/09/22 03:07:54;;;;;;;13.75;6.28;;;;;;;7.88;100.00;102399.03;10585412;28;20374;-67
2022/09/22 03:12:56;;;;;;;8.98;6.78;;;;;;;7.81;100.00;102392.53;10583972;28;20055;-67
2022/09/22 03:17:56;;;;;;;8.18;6.60;;;;;;;7.81;100.00;102398.75;10585945;28;20157;-68
2022/09/22 03:22:56;;;;;;;11.73;6.68;;;;;;;7.81;100.00;102379.03;10584860;28;20027;-68
2022/09/22 03:27:57;;;;;;;12.32;6.55;;;;;;;7.72;100.00;102386.13;10566286;28;20027;-68
2022/09/22 03:32:57;;;;;;;8.07;6.95;;;;;;;7.69;100.00;102371.09;10584936;28;20031;-68
2022/09/22 03:37:58;;;;;;;5.47;4.82;;;;;;;7.75;100.00;102380.44;10566054;28;20053;-68
2022/09/22 03:42:58;;;;;;;9.25;6.78;;;;;;;7.71;100.00;102376.34;10565653;28;20044;-68
2022/09/22 03:47:59;;;;;;;10.00;6.90;;;;;;;7.68;100.00;102374.78;10584090;28;20425;-67
2022/09/22 03:52:59;;;;;;;16.42;7.28;;;;;;;7.65;100.00;102372.38;10583432;28;20036;-68
2022/09/22 03:57:59;;;;;;;16.20;7.22;;;;;;;7.63;100.00;102368.97;10583312;28;20100;-67
2022/09/22 04:03:00;;;;;;;13.75;7.93;;;;;;;7.61;100.00;102370.09;10582366;28;20077;-67
2022/09/22 04:08:00;;;;;;;19.80;8.88;;;;;;;7.63;100.00;102368.13;10565537;28;20059;-68
2022/09/22 04:13:01;;;;;;;10.20;9.13;;;;;;;7.67;100.00;102370.38;10564839;28;20023;-68
2022/09/22 04:18:01;;;;;;;12.00;9.00;;;;;;;7.67;100.00;102372.25;10583627;28;20063;-68
2022/09/22 04:23:01;;;;;;;10.85;8.77;;;;;;;7.65;100.00;102364.28;10581381;28;20032;-67
2022/09/22 04:28:03;;;;;;;11.98;9.38;;;;;;;7.64;100.00;102359.88;10583696;28;20059;-68
2022/09/22 04:33:03;;;;;;;13.70;10.18;;;;;;;7.69;100.00;102368.41;10563646;28;20034;-67
2022/09/22 04:38:04;;;;;;;19.55;10.77;;;;;;;7.64;100.00;102365.28;10582434;28;20056;-69
2022/09/22 04:43:04;;;;;;;16.35;12.63;;;;;;;7.66;100.00;102365.16;10581266;28;20096;-69
2022/09/22 04:48:04;;;;;;;18.88;12.60;;;;;;;7.64;100.00;102353.66;10563408;28;20364;-69
2022/09/22 04:53:05;;;;;;;17.00;13.02;;;;;;;7.71;100.00;102353.94;10582088;28;20093;-69
2022/09/22 04:58:06;;;;;;;13.73;11.07;;;;;;;7.76;100.00;102348.97;10580122;28;20375;-72
2022/09/22 05:03:11;;;;;;;28.20;13.48;;;;;;;7.79;100.00;102354.94;10582516;28;20027;-69
2022/09/22 05:08:12;;;;;;;15.38;10.88;;;;;;;7.80;100.00;102355.78;10583382;28;20118;-68
2022/09/22 05:13:14;;;;;;;18.60;11.15;;;;;;;7.79;100.00;102356.78;10583344;28;20110;-69
2022/09/22 05:18:14;;;;;;;20.40;10.20;;;;;;;7.77;100.00;102356.06;10582187;28;20476;-70
2022/09/22 05:23:15;;;;;;;13.73;11.15;;;;;;;7.73;100.00;102358.19;10582813;28;20031;-70
2022/09/22 05:28:15;;;;;;;20.10;12.00;;;;;;;7.75;100.00;102360.72;10581265;28;20043;-68
2022/09/22 05:33:15;;;;;;;15.02;12.23;;;;;;;7.76;100.00;102360.59;10581789;28;20035;-70
2022/09/22 05:38:16;;;;;;;13.05;11.00;;;;;;;7.80;100.00;102363.84;10587664;28;20130;-70
2022/09/22 05:43:16;;;;;;;15.55;10.88;;;;;;;7.82;100.00;102364.56;10589190;28;20042;-70
2022/09/22 05:48:17;;;;;;;16.50;10.93;;;;;;;7.85;100.00;102369.69;10588284;28;20039;-70
2022/09/22 05:53:17;;;;;;;15.48;12.23;;;;;;;7.89;100.00;102365.69;10589024;28;20055;-69
2022/09/22 05:58:18;;;;;;;18.60;15.52;;;;;;;7.97;100.00;102360.41;10569333;28;20113;-70
2022/09/22 06:03:18;;;;;;;27.60;13.65;;;;;;;8.09;100.00;102351.16;10570503;28;20027;-70
2022/09/22 06:08:19;;;;;;;21.83;12.73;;;;;;;8.29;100.00;102348.41;10588942;28;20035;-70
2022/09/22 06:13:19;;;;;;;17.15;12.32;;;;;;;8.59;100.00;102347.34;10588784;28;20035;-69
2022/09/22 06:18:20;;;;;;;35.25;16.20;;;;;;;9.39;100.00;102350.28;10587428;28;20035;-71
2022/09/22 06:23:20;;;;;;;19.35;15.05;;;;;;;9.90;100.00;102349.53;10586653;28;20032;-69
2022/09/22 06:28:21;;;;;;;21.08;16.25;;;;;;;10.60;100.00;102343.22;10586589;28;20081;-69
2022/09/22 06:33:22;;;;;;;16.60;14.60;;;;;;;11.62;100.00;102347.56;10585639;28;20028;-69
2022/09/22 06:38:23;;;;;;;21.55;15.00;;;;;;;12.48;100.00;102344.25;10587851;28;20058;-69
2022/09/22 06:43:23;;;;;;;17.73;15.82;;;;;;;13.03;100.00;102342.47;10585920;28;20039;-69
2022/09/22 06:48:23;;;;;;;20.00;12.75;;;;;;;13.40;100.00;102333.59;10587189;28;20040;-69
2022/09/22 06:53:24;;;;;;;19.38;14.50;;;;;;;13.78;100.00;102335.50;10585371;28;20424;-69
2022/09/22 06:58:26;;;;;;;14.30;11.02;;;;;;;14.10;100.00;102326.16;10586239;28;20035;-69
2022/09/22 07:03:27;;;;;;;14.35;11.40;;;;;;;14.52;100.00;102333.75;10585455;28;20081;-70
2022/09/22 07:08:28;;;;;;;15.13;11.35;;;;;;;14.96;100.00;102326.53;10584892;28;20119;-70
2022/09/22 07:13:30;;;;;;;12.30;11.10;;;;;;;15.04;100.00;102326.41;10584898;28;20161;-69
2022/09/22 07:18:30;;;;;;;12.35;11.10;;;;;;;15.54;100.00;102314.56;10550471;28;20035;-70
2022/09/22 07:23:34;;;;;;;12.55;11.35;;;;;;;15.62;100.00;102318.19;10583162;28;20067;-69
2022/09/22 07:28:35;;;;;;;13.20;11.25;;;;;;;15.71;100.00;102311.59;10584914;28;20459;-70
2022/09/22 07:33:36;;;;;;;12.15;10.63;;;;;;;15.95;100.00;102322.09;10583621;28;20031;-69
2022/09/22 07:38:37;;;;;;;18.65;11.93;;;;;;;16.25;100.00;102317.25;10548863;28;20062;-69
2022/09/22 07:43:38;;;;;;;13.55;10.23;;;;;;;16.85;100.00;102317.59;10566075;28;20038;-70
2022/09/22 07:48:46;;;;;;;13.48;11.07;;;;;;;17.60;100.00;102320.25;10583364;28;20035;-70
2022/09/22 07:53:52;;;;;;;13.88;9.85;;;;;;;18.17;100.00;102313.31;10549930;28;20044;-69
2022/09/22 07:58:53;;;;;;;12.50;10.77;;;;;;;18.60;100.00;102307.28;10582189;28;20046;-69
2022/09/22 08:03:56;;;;;;;14.38;10.43;;;;;;;18.58;97.64;102312.16;10565542;28;20036;-70
2022/09/22 08:08:56;;;;;;;13.98;10.18;;;;;;;18.94;99.66;102308.84;10565650;28;20035;-70
2022/09/22 08:14:01;;;;;;;11.68;10.48;;;;;;;19.48;98.75;102293.72;10530793;28;20456;-70
2022/09/22 08:19:04;;;;;;;20.15;9.35;;;;;;;19.64;96.72;102297.03;10582114;28;20379;-70
2022/09/22 08:24:07;;;;;;;15.75;9.93;;;;;;;19.58;96.30;102295.97;10582933;28;20104;-71
2022/09/22 08:29:08;;;;;;;17.88;9.35;;;;;;;20.06;95.64;102289.84;10564079;28;20455;-70
2022/09/22 08:34:08;;;;;;;13.90;8.80;;;;;;;20.87;95.39;102290.66;10546688;28;20023;-70
2022/09/22 08:39:09;;;;;;;11.48;8.80;;;;;;;21.35;93.78;102279.59;10580386;28;20058;-69
2022/09/22 08:44:09;;;;;;;11.98;10.02;;;;;;;21.53;91.52;102278.63;10563400;28;20043;-69
2022/09/22 08:54:47;;;;;;;15.07;8.10;;;;;;;21.54;81.72;102274.81;10580733;28;20040;-70
2022/09/22 08:59:51;;;;;;;11.63;9.40;;;;;;;21.58;83.76;102275.19;10581632;28;20043;-69
2022/09/22 09:04:59;;;;;;;14.73;8.00;;;;;;;22.11;84.69;102276.13;10581570;28;20035;-69
2022/09/22 09:10:28;;;;;;;11.52;9.63;;;;;;;22.80;84.11;102271.56;10566349;28;20024;-68
2022/09/22 09:15:56;;;;;;;7.13;6.55;;;;;;;22.96;78.73;102284.63;10575465;28;20123;-70
2022/09/22 09:20:58;;;;;;;8.38;7.40;;;;;;;22.81;67.74;102288.97;10590262;28;20042;-70
2022/09/22 09:25:59;;;;;;;7.22;6.53;;;;;;;22.75;76.86;102279.78;10571528;28;20027;-70
2022/09/22 09:31:06;;;;;;;19.10;6.85;;;;;;;23.18;74.16;102286.69;10570961;28;20027;-70
2022/09/22 09:36:12;;;;;;;12.73;6.75;;;;;;;23.31;72.01;102289.13;10587214;28;20070;-69
2022/09/22 09:41:14;;;;;;;5.40;5.00;;;;;;;23.70;71.40;102283.72;10571149;28;20029;-69
2022/09/22 09:46:50;;;;;;;7.00;5.85;;;;;;;23.31;62.21;102282.78;10587665;28;20028;-69
2022/09/22 09:51:52;;;;;;;7.70;4.10;;;;;;;23.18;55.12;102281.16;10535908;28;20042;-70
2022/09/22 09:57:05;;;;;;;7.90;4.65;;;;;;;22.81;51.63;102278.75;10586974;28;20122;-70
2022/09/22 10:02:07;;;;;;;5.45;4.75;;;;;;;22.46;59.95;102268.69;10587294;28;20035;-70
2022/09/22 10:07:32;;;;;;;12.60;4.82;;;;;;;22.40;56.89;102271.56;10568661;28;20035;-70
2022/09/22 10:12:33;;;;;;;6.40;4.25;;;;;;;23.05;59.52;102254.69;10586358;28;20027;-70
2022/09/22 10:17:40;;;;;;;4.93;4.40;;;;;;;23.50;61.54;102258.50;10552604;28;20031;-70
2022/09/22 10:22:41;;;;;;;5.22;3.72;;;;;;;23.84;55.78;102254.66;10587425;27;20459;-70
2022/09/22 10:27:47;;;;;;;4.90;3.22;;;;;;;23.69;57.97;102253.56;10552000;28;20035;-69
2022/09/22 10:33:12;;;;;;;3.90;3.55;;;;;;;24.01;60.42;102234.41;10587556;28;20038;-70
2022/09/22 10:38:20;;;;;;;12.38;3.70;;;;;;;24.18;56.11;102235.19;10588365;28;20051;-71
2022/09/22 10:43:36;;;;;;;6.68;3.45;;;;;;;23.90;47.63;102230.66;10568644;28;20058;-70
2022/09/22 10:48:58;;;;;;;3.33;3.13;;;;;;;24.00;57.22;102218.91;10550376;28;20078;-70
2022/09/22 10:54:17;;;;;;;3.28;2.88;;;;;;;23.93;54.68;102218.22;10586310;28;20035;-70
2022/09/22 10:59:32;;;;;;;2.63;2.42;;;;;;;23.67;51.09;102215.06;10585224;28;20028;-69
2022/09/22 11:04:54;;;;;;;8.52;2.90;;;;;;;24.10;56.83;102206.03;10586103;28;20039;-69
2022/09/22 11:15:56;;;;;;;2.00;1.90;;;;;;;25.22;57.58;102200.09;10508128;28;20046;-69
2022/09/22 11:21:22;;;;;;;5.32;3.25;;;;;;;25.03;49.50;102205.97;10584846;28;20379;-69
2022/09/22 11:26:56;;;;;;;4.88;4.30;;;;;;;24.85;43.31;102194.44;10566848;28;20063;-70
2022/09/22 11:32:31;;;;;;;9.38;4.07;;;;;;;24.70;47.17;102206.22;10550055;28;20035;-71
2022/09/22 11:37:51;;;;;;;6.80;4.95;;;;;;;24.86;49.68;102187.81;10565381;28;20475;-70
2022/09/22 11:43:13;;;;;;;5.20;3.28;;;;;;;24.35;49.92;102172.28;10549099;28;20046;-70
2022/09/22 11:48:21;;;;;;;4.95;2.72;;;;;;;24.41;51.25;102161.25;10552191;28;20038;-69
2022/09/22 11:53:44;;;;;;;3.45;2.75;;;;;;;25.09;54.58;102147.84;10565727;28;20027;-70
2022/09/22 11:58:44;;;;;;;2.88;2.35;;;;;;;25.03;49.29;102155.25;10548385;28;20028;-69
2022/09/22 12:03:58;;;;;;;3.63;2.35;;;;;;;24.49;40.63;102145.06;10581515;28;20032;-71
2022/09/22 12:09:22;;;;;;;1.48;1.40;;;;;;;24.54;51.28;102152.59;10549099;28;20043;-69
2022/09/22 12:14:22;;;;;;;2.00;1.90;;;;;;;24.78;44.14;102137.31;10581965;28;20036;-69
2022/09/22 12:19:33;;;;;;;3.90;2.20;;;;;;;24.57;47.88;102116.91;10546971;28;20122;-71
2022/09/22 12:24:33;;;;;;;1.38;1.27;;;;;;;24.55;51.52;102124.63;10582286;28;20118;-70
2022/09/22 12:29:35;;;;;;;2.25;1.55;;;;;;;23.68;49.71;102111.66;10547038;28;20028;-70
2022/09/22 12:34:38;;;;;;;2.72;2.53;;;;;;;23.58;48.71;102115.13;10581778;28;20035;-70
2022/09/22 12:39:42;;;;;;;1.88;1.67;;;;;;;23.34;48.85;102106.19;10531336;28;20599;-70
2022/09/22 12:44:44;;;;;;;2.65;1.70;;;;;;;23.39;50.57;102097.16;10581068;28;20034;-71
2022/09/22 12:49:54;;;;;;;3.13;2.03;;;;;;;24.04;53.18;102082.53;10563152;28;20110;-70
2022/09/22 12:55:17;;;;;;;2.35;2.17;;;;;;;24.21;50.20;102079.66;10563573;28;20024;-71
2022/09/22 13:00:27;;;;;;;1.90;1.80;;;;;;;24.26;51.12;102073.38;10581243;28;20442;-71
2022/09/22 13:05:28;;;;;;;2.40;1.70;;;;;;;23.96;46.78;102082.16;10582004;28;20035;-69
2022/09/22 13:10:36;;;;;;;7.93;2.30;;;;;;;23.91;52.74;102077.41;10582151;28;20750;-70
2022/09/22 13:15:48;;;;;;;2.78;2.58;;;;;;;23.82;45.70;102067.88;10581424;28;20173;-71
2022/09/22 13:20:49;;;;;;;5.63;3.05;;;;;;;23.35;40.92;102065.56;10580441;28;20089;-70
2022/09/22 13:25:50;;;;;;;3.42;3.13;;;;;;;22.77;43.25;102056.66;10581165;28;20032;-71
2022/09/22 13:30:58;;;;;;;3.75;2.85;;;;;;;22.81;50.55;102070.78;10579075;28;20031;-69
2022/09/22 13:36:03;;;;;;;2.60;2.08;;;;;;;22.90;48.16;102058.25;10579839;28;20031;-69
2022/09/22 13:41:12;;;;;;;3.35;3.03;;;;;;;23.22;45.31;102050.19;10563306;28;20024;-70
2022/09/22 13:46:19;;;;;;;2.47;2.28;;;;;;;23.13;50.61;102043.41;10563218;28;20480;-70
2022/09/22 13:51:19;;;;;;;1.77;1.67;;;;;;;22.49;45.61;102047.38;10545213;28;20040;-69
2022/09/22 13:56:20;;;;;;;2.20;1.67;;;;;;;22.56;51.54;102047.22;10565509;28;20062;-70
2022/09/22 14:01:22;;;;;;;2.72;1.65;;;;;;;22.63;53.02;102045.13;10570771;28;20028;-71
2022/09/22 14:06:27;;;;;;;3.88;1.73;;;;;;;22.36;51.11;102033.03;10571074;28;20031;-71
2022/09/22 14:11:31;;;;;;;1.70;1.20;;;;;;;22.13;50.14;102034.81;10570333;28;20019;-67
2022/09/22 14:16:33;;;;;;;1.67;1.58;;;;;;;21.94;49.26;102034.16;10588134;28;20131;-71
2022/09/22 14:21:54;;;;;;;2.55;1.75;;;;;;;21.74;49.44;102022.75;10570153;28;20038;-71
2022/09/22 14:27:16;;;;;;;2.28;1.67;;;;;;;21.75;50.32;102022.47;10554140;28;20035;-69
2022/09/22 14:32:23;;;;;;;7.90;1.73;;;;;;;21.83;51.69;102018.50;10570883;28;20031;-71
2022/09/22 14:37:23;;;;;;;;;;;;;;;21.84;53.05;102017.44;10587211;28;20474;-70
2022/09/22 14:42:27;;;;;;;2.83;2.30;;;;;;;21.49;52.03;102012.84;10586715;28;19911;-71
2022/09/22 14:47:28;;;;;;;2.03;1.83;;;;;;;21.12;53.18;101995.75;10586435;28;20096;-70
2022/09/22 14:52:30;;;;;;;6.90;1.73;;;;;;;20.53;53.74;102003.19;10567735;28;20523;-70
2022/09/22 14:57:30;;;;;;;4.07;1.45;;;;;;;20.11;52.72;101994.94;10567011;28;20131;-71
2022/09/22 15:02:35;;;;;;;3.15;1.52;;;;;;;19.73;50.66;101987.84;10585690;28;20390;-71
2022/09/22 15:07:37;;;;;;;6.80;2.50;;;;;;;19.43;53.02;101987.78;10567328;28;20122;-70
2022/09/22 15:12:39;;;;;;;2.78;1.90;;;;;;;19.32;53.99;101988.56;10566870;28;20024;-70
2022/09/22 15:23:00;;;;;;;6.35;3.10;;;;;;;18.95;54.11;101983.03;10584465;28;20039;-70
2022/09/22 15:28:06;;;;;;;5.43;2.90;;;;;;;18.79;53.56;101982.56;10566322;28;20023;-70
2022/09/22 15:33:07;;;;;;;3.90;2.88;;;;;;;18.52;52.09;101967.38;10585015;28;20032;-70
2022/09/22 15:38:16;;;;;;;4.35;3.35;;;;;;;18.36;54.63;101969.63;10585172;28;20466;-70
2022/09/22 15:43:21;;;;;;;7.50;3.00;;;;;;;18.15;52.67;101972.72;10567026;28;20080;-71
2022/09/22 15:48:38;;;;;;;2.60;2.33;;;;;;;18.01;54.78;101966.50;10585485;28;20042;-70
2022/09/22 15:53:40;;;;;;;;;;;;;;;17.88;56.28;101958.38;10550050;28;20035;-70
2022/09/22 15:58:42;;;;;;;8.55;3.13;;;;;;;17.76;56.32;101955.44;10582959;28;19919;-71
2022/09/22 16:03:43;;;;;;;7.50;3.35;;;;;;;17.65;56.71;101954.25;10582244;28;20062;-71
2022/09/22 16:08:45;;;;;;;2.75;2.55;;;;;;;17.61;57.80;101955.75;10547645;28;20039;-70
2022/09/22 16:13:47;;;;;;;2.00;1.90;;;;;;;17.53;58.73;101949.69;10564268;28;20027;-70
2022/09/22 16:18:48;;;;;;;5.78;3.08;;;;;;;17.35;58.75;101945.75;10581807;28;20367;-70
2022/09/22 16:23:48;;;;;;;4.82;2.45;;;;;;;17.21;58.22;101941.38;10582233;28;20046;-70
2022/09/22 16:28:49;;;;;;;4.43;3.17;;;;;;;17.13;59.64;101936.13;10582019;28;20467;-70
2022/09/22 16:33:53;;;;;;;2.60;2.13;;;;;;;17.04;60.33;101946.50;10562890;28;20038;-70
2022/09/22 16:38:54;;;;;;;6.45;2.33;;;;;;;16.95;61.09;101939.59;10563737;28;20054;-70
2022/09/22 16:43:55;;;;;;;4.82;2.40;;;;;;;16.88;61.63;101939.59;10563551;28;20050;-71
2022/09/22 16:49:03;;;;;;;3.03;2.67;;;;;;;16.80;62.40;101931.59;10564153;28;20114;-71
2022/09/22 16:54:05;;;;;;;1.75;1.65;;;;;;;16.70;62.96;101934.75;10582703;28;20035;-70
2022/09/22 16:59:05;;;;;;;6.20;2.42;;;;;;;16.61;63.07;101930.56;10583023;28;20032;-71
2022/09/22 17:04:06;;;;;;;2.72;2.30;;;;;;;16.46;63.70;101916.25;10581653;28;20027;-72
2022/09/22 17:09:07;;;;;;;2.28;2.10;;;;;;;16.39;63.99;101921.75;10580793;28;20447;-71
2022/09/22 17:14:20;;;;;;;3.90;2.22;;;;;;;16.34;64.24;101932.47;10581515;28;20123;-72
2022/09/22 17:19:25;;;;;;;6.13;2.45;;;;;;;16.26;64.44;101925.31;10546774;28;20031;-72
2022/09/22 17:24:25;;;;;;;8.07;2.58;;;;;;;16.16;64.53;101927.63;10563023;28;20490;-71
2022/09/22 17:29:27;;;;;;;2.42;2.20;;;;;;;16.06;65.03;101920.91;10581302;28;20042;-71
2022/09/22 17:34:28;;;;;;;8.20;2.83;;;;;;;15.93;65.33;101922.56;10587999;28;20081;-71
2022/09/22 17:39:29;;;;;;;8.50;2.33;;;;;;;15.84;65.30;101931.19;10570333;28;20048;-72
2022/09/22 17:44:32;;;;;;;3.72;2.30;;;;;;;15.76;65.68;101918.53;10588068;28;20487;-70
2022/09/22 17:55:06;;;;;;;6.45;2.72;;;;;;;15.46;66.22;101916.13;10588523;28;20394;-70
2022/09/22 18:00:12;;;;;;;2.30;2.10;;;;;;;15.33;66.35;101911.47;10569734;28;20034;-71
2022/09/22 18:05:13;;;;;;;9.68;2.92;;;;;;;15.36;66.36;101921.13;10571755;28;20059;-70
2022/09/22 18:10:15;;;;;;;8.18;3.67;;;;;;;15.30;66.61;101919.22;10569898;28;20028;-71
2022/09/22 18:15:16;;;;;;;6.22;2.75;;;;;;;15.12;67.45;101919.75;10571353;28;20036;-70
2022/09/22 18:20:19;;;;;;;6.60;3.70;;;;;;;14.93;67.58;101917.78;10569915;28;20034;-71
2022/09/22 18:25:22;;;;;;;10.25;5.28;;;;;;;14.76;67.61;101920.00;10569845;28;20119;-70
2022/09/22 18:30:23;;;;;;;8.35;3.38;;;;;;;14.60;68.31;101916.53;10587882;28;20490;-71
2022/09/22 18:35:23;;;;;;;4.03;2.55;;;;;;;14.45;69.18;101918.50;10587500;28;20050;-71
2022/09/22 18:40:24;;;;;;;2.33;2.22;;;;;;;14.38;68.95;101921.16;10568481;28;20055;-70
2022/09/22 18:45:25;;;;;;;6.30;3.28;;;;;;;14.28;69.36;101919.84;10587886;28;20038;-70
2022/09/22 18:50:33;;;;;;;7.38;3.92;;;;;;;14.18;69.93;101923.72;10585418;28;20391;-70
2022/09/22 18:55:33;;;;;;;4.85;3.85;;;;;;;14.06;70.25;101919.00;10585420;28;20045;-70
2022/09/22 19:00:33;;;;;;;3.55;3.25;;;;;;;14.00;69.80;101914.34;10585942;28;20031;-71
2022/09/22 19:05:34;;;;;;;5.95;4.20;;;;;;;13.90;70.56;101920.97;10586575;28;20088;-69
2022/09/22 19:10:34;;;;;;;7.72;4.63;;;;;;;13.83;71.13;101913.78;10585384;28;20139;-70
2022/09/22 19:15:35;;;;;;;4.63;3.50;;;;;;;13.77;71.33;101926.28;10567147;28;20047;-70
2022/09/22 19:20:37;;;;;;;4.50;4.10;;;;;;;13.70;71.08;101928.94;10585273;28;20031;-69
2022/09/22 19:25:38;;;;;;;5.65;4.50;;;;;;;13.61;71.33;101921.91;10585689;28;20032;-70
2022/09/22 19:30:39;;;;;;;6.43;4.13;;;;;;;13.54;71.83;101923.72;10584187;28;20031;-70
2022/09/22 19:35:39;;;;;;;5.13;3.88;;;;;;;13.43;72.00;101918.78;10585150;28;20054;-69
2022/09/22 19:40:39;;;;;;;6.65;4.10;;;;;;;13.38;72.19;101926.69;10565416;28;20048;-70
2022/09/22 19:45:40;;;;;;;6.82;4.60;;;;;;;13.30;73.21;101921.34;10584711;28;20327;-71
2022/09/22 19:50:40;;;;;;;4.10;3.75;;;;;;;13.26;73.15;101916.28;10584523;28;20066;-70
2022/09/22 19:55:41;;;;;;;7.90;5.07;;;;;;;13.24;73.08;101906.56;10582943;28;20035;-70
2022/09/22 20:00:42;;;;;;;5.18;4.75;;;;;;;13.19;73.25;101901.72;10566586;28;20054;-70
2022/09/22 20:05:43;;;;;;;7.28;4.97;;;;;;;13.07;73.88;101896.97;10584164;28;20036;-70
2022/09/22 20:10:44;;;;;;;4.70;4.30;;;;;;;12.95;74.31;101891.16;10583742;28;20367;-70
2022/09/22 20:15:45;;;;;;;8.95;5.30;;;;;;;12.87;74.49;101885.84;10547276;28;20035;-69
2022/09/22 20:20:46;;;;;;;4.47;4.05;;;;;;;12.81;74.60;101884.69;10582616;28;20039;-71
2022/09/22 20:25:48;;;;;;;5.78;4.80;;;;;;;12.71;75.32;101885.00;10548917;28;20030;-70
2022/09/22 20:30:49;;;;;;;10.25;5.85;;;;;;;12.66;75.01;101873.81;10581960;28;20055;-71
2022/09/22 20:35:50;;;;;;;7.18;4.57;;;;;;;12.62;75.57;101866.25;10582524;28;20050;-70
2022/09/22 20:40:50;;;;;;;8.43;5.30;;;;;;;12.59;75.93;101869.34;10564674;28;20089;-71
2022/09/22 20:45:51;;;;;;;10.48;5.05;;;;;;;12.52;75.75;101858.38;10582251;28;20043;-70
2022/09/22 20:50:55;;;;;;;5.47;4.15;;;;;;;12.48;76.25;101859.78;10581253;28;20456;-69
2022/09/22 20:56:02;;;;;;;7.80;4.40;;;;;;;12.43;76.42;101864.94;10581349;28;20093;-70
2022/09/22 21:01:04;;;;;;;5.10;4.38;;;;;;;12.39;77.00;101860.91;10564087;28;20483;-70
2022/09/22 21:06:06;;;;;;;9.35;5.85;;;;;;;12.32;76.62;101858.94;10586330;28;20071;-70
2022/09/22 21:11:13;;;;;;;11.82;5.25;;;;;;;12.23;77.46;101846.47;10573113;28;20031;-71
2022/09/22 21:16:14;;;;;;;5.85;5.25;;;;;;;12.27;77.69;101849.63;10590087;28;20471;-69
2022/09/22 21:21:16;;;;;;;9.73;5.28;;;;;;;12.27;77.94;101847.75;10589792;28;20089;-69
2022/09/22 21:26:17;;;;;;;6.95;6.13;;;;;;;12.21;78.29;101831.38;10572377;28;20034;-70
2022/09/22 21:31:18;;;;;;;9.13;6.32;;;;;;;12.27;78.74;101831.47;10571488;28;20416;-70
2022/09/22 21:36:23;;;;;;;11.63;6.25;;;;;;;12.25;79.58;101822.69;10570863;28;20071;-70
2022/09/22 21:41:27;;;;;;;7.35;6.68;;;;;;;12.23;79.86;101823.91;10571598;28;20035;-70
2022/09/22 21:46:28;;;;;;;8.70;5.53;;;;;;;12.20;79.79;101816.97;10571982;28;20122;-71
2022/09/22 21:51:42;;;;;;;11.85;6.82;;;;;;;12.11;80.58;101809.91;10588512;28;20114;-71
2022/09/22 21:56:43;;;;;;;9.38;6.10;;;;;;;12.08;81.84;101802.97;10573112;28;20020;-70
2022/09/22 22:01:43;;;;;;;6.93;6.22;;;;;;;12.09;82.08;101803.81;10587875;28;20478;-70
2022/09/22 22:06:44;;;;;;;9.93;6.03;;;;;;;11.99;82.26;101790.50;10553571;28;20039;-69
2022/09/22 22:11:49;;;;;;;6.85;5.93;;;;;;;11.98;82.35;101793.44;10569809;28;20036;-70
2022/09/22 22:16:53;;;;;;;5.55;5.03;;;;;;;11.93;82.85;101796.69;10569187;28;20035;-70
2022/09/22 22:21:53;;;;;;;7.88;7.05;;;;;;;11.95;82.97;101777.50;10552035;28;20059;-71
2022/09/22 22:27:00;;;;;;;13.25;7.15;;;;;;;11.97;82.70;101789.03;10587328;28;20032;-70
2022/09/22 22:32:01;;;;;;;11.77;4.88;;;;;;;11.94;83.00;101783.97;10586538;28;20429;-70
2022/09/22 22:37:03;;;;;;;12.68;6.32;;;;;;;11.99;83.00;101784.25;10586123;28;20043;-70
2022/09/22 22:42:04;;;;;;;12.25;5.97;;;;;;;11.90;82.75;101775.38;10587293;28;20039;-71
2022/09/22 22:47:04;;;;;;;7.43;5.70;;;;;;;11.97;83.00;101780.91;10568254;28;20482;-70
2022/09/22 22:52:05;;;;;;;5.63;4.28;;;;;;;12.00;83.07;101785.97;10586881;28;20031;-70
2022/09/22 22:57:05;;;;;;;8.10;6.03;;;;;;;12.01;82.94;101779.50;10585850;28;20032;-70
2022/09/22 23:02:06;;;;;;;6.88;5.45;;;;;;;11.98;83.25;101771.72;10586091;28;20027;-70
2022/09/22 23:07:06;;;;;;;9.63;5.50;;;;;;;11.95;83.74;101775.63;10585356;28;20092;-70
2022/09/22 23:12:09;;;;;;;5.15;4.75;;;;;;;11.97;83.64;101767.31;10549876;28;20126;-70
2022/09/22 23:17:09;;;;;;;17.17;5.22;;;;;;;11.98;84.28;101764.41;10568048;28;20031;-69
2022/09/22 23:22:10;;;;;;;6.38;5.38;;;;;;;11.94;84.01;101759.56;10568017;28;20125;-70
2022/09/22 23:27:10;;;;;;;6.63;5.28;;;;;;;11.94;83.99;101757.69;10566961;28;20371;-70
2022/09/22 23:32:11;;;;;;;7.45;5.72;;;;;;;11.91;83.58;101751.78;10584388;28;20122;-70
2022/09/22 23:37:11;;;;;;;4.70;4.30;;;;;;;11.89;83.77;101757.38;10584402;28;20076;-70